CDT,Max TemperatureF,Mean TemperatureF,Min TemperatureF,Max Dew PointF,MeanDew PointF,Min DewpointF,Max Humidity, Mean Humidity, Min Humidity, Max Sea Level PressureIn, Mean Sea Level PressureIn, Min Sea Level PressureIn, Max VisibilityMiles, Mean VisibilityMiles, Min VisibilityMiles, Max Wind SpeedMPH, Mean Wind SpeedMPH, Max Gust SpeedMPH,PrecipitationIn, CloudCover, Events, WindDirDegrees
2013-3-1,26,16,1,14,11,-5,84,68,55,30.40,30.36,30.30,10,10,10,12,9,22,0.00,5,,34
2013-3-2,30,10,-9,8,-2,-16,88,61,32,30.42,30.33,30.24,10,10,10,5,1,,0.00,0,,38
2013-3-3,30,11,-8,9,0,-14,83,57,29,30.23,30.17,30.10,10,10,10,8,2,,0.00,0,,70
2013-3-4,30,22,15,22,11,2,88,59,36,30.13,30.10,30.07,10,8,1,10,5,18,0.00,7,Snow,106
2013-3-5,28,24,19,21,18,14,88,78,60,30.30,30.12,30.02,10,5,0,10,4,22,0.06,8,Snow,50
2013-3-6,30,18,1,16,11,-3,92,71,43,30.40,30.35,30.26,10,10,7,7,2,,0.00,3,,313
2013-3-7,34,15,-4,14,6,-10,83,64,40,30.46,30.42,30.37,10,10,9,7,1,,0.00,0,,105
2013-3-8,42,30,19,25,20,11,78,66,51,30.39,30.31,30.18,10,10,10,12,6,20,0.00,2,,167
2013-3-9,48,39,30,34,29,21,93,76,43,30.16,29.88,29.74,10,3,1,12,7,22,0.24,8,Rain-Snow,149
2013-3-10,34,31,28,32,27,22,93,81,70,30.00,29.89,29.76,10,8,1,14,4,26,0.00,8,,31
2013-3-11,28,26,23,23,20,15,88,76,64,29.89,29.78,29.69,10,10,7,14,8,23,0.00,8,Snow,19
2013-3-12,28,24,18,16,14,11,86,72,49,30.14,29.91,29.74,10,7,1,9,3,16,0.00,7,Snow,341
2013-3-13,34,22,10,9,4,-2,74,49,23,30.35,30.28,30.16,10,10,10,7,2,,0.00,0,,262
2013-3-14,37,22,8,26,16,4,85,72,62,30.28,30.15,30.04,10,10,7,9,2,,0.00,4,,190
2013-3-15,30,22,17,27,18,12,93,76,54,30.03,29.96,29.91,10,5,1,12,4,20,0.11,8,Snow,36
2013-3-16,25,13,1,12,8,-2,86,69,42,30.26,30.06,29.93,10,7,1,8,5,16,0.05,5,Snow,5
2013-3-17,26,6,-14,9,-4,-21,80,54,31,30.33,30.21,29.99,10,10,10,13,4,21,0.00,3,,156
2013-3-18,28,22,17,25,18,10,86,80,65,29.97,29.61,29.49,10,2,0,17,10,26,0.06,8,Fog-Snow,188
2013-3-19,27,17,8,12,3,-4,85,61,35,30.09,29.83,29.57,10,7,1,12,8,25,0.00,4,Snow,280
2013-3-20,19,10,-2,3,-2,-7,80,65,47,30.15,30.09,30.02,10,7,2,8,4,16,0.00,6,Snow,288
2013-3-21,30,15,0,8,3,-5,85,66,38,30.15,30.10,30.03,10,10,7,5,1,,0.00,4,Snow,290
2013-3-22,36,16,-4,18,7,-10,88,66,42,30.13,30.10,30.06,10,10,10,8,1,,0.00,1,,45
2013-3-23,37,22,8,19,15,4,88,70,48,30.21,30.16,30.11,10,10,10,7,2,,0.00,4,,54
2013-3-24,30,24,12,22,17,8,81,72,61,30.14,30.08,30.00,10,10,10,14,7,22,0.00,5,,53
2013-3-25,34,18,3,21,13,-2,89,70,52,30.22,30.13,30.02,10,10,10,8,2,16,0.00,6,,18
2013-3-26,37,29,21,22,18,14,85,62,38,30.30,30.27,30.22,10,10,10,5,1,,0.00,8,,110
2013-3-27,43,33,21,23,17,12,81,57,30,30.35,30.33,30.31,10,10,10,5,1,,0.00,5,,330
2013-3-28,46,28,12,18,14,7,88,58,26,30.39,30.35,30.30,10,10,10,5,1,,0.00,0,,-1
2013-3-29,48,30,14,27,19,10,85,60,31,30.35,30.27,30.12,10,10,10,12,2,,0.00,3,,191
2013-3-30,48,39,30,39,34,25,100,90,57,30.11,29.85,29.77,10,3,0,7,3,,0.34,5,Fog-Rain,204
2013-3-31,37,30,25,29,24,9,93,78,38,30.03,29.77,29.69,10,5,0,12,3,25,0.00,7,Fog-Snow,288